sensor_id;sensor_type;location;lat;lon;timestamp;temperature;humidity
39519;DHT22;25200;53.394;10.414;2023-05-07T00:01:50;11.30;68.50
39519;DHT22;25200;53.394;10.414;2023-05-07T00:04:16;11.30;68.80
39519;DHT22;25200;53.394;10.414;2023-05-07T00:06:41;11.30;68.60
39519;DHT22;25200;53.394;10.414;2023-05-07T00:09:07;11.20;68.40
39519;DHT22;25200;53.394;10.414;2023-05-07T00:11:33;11.20;68.60
39519;DHT22;25200;53.394;10.414;2023-05-07T00:13:59;11.20;68.50
39519;DHT22;25200;53.394;10.414;2023-05-07T00:16:25;11.20;68.50
39519;DHT22;25200;53.394;10.414;2023-05-07T00:18:52;11.20;68.40
39519;DHT22;25200;53.394;10.414;2023-05-07T00:21:18;11.20;68.60
39519;DHT22;25200;53.394;10.414;2023-05-07T00:23:43;11.20;68.50
39519;DHT22;25200;53.394;10.414;2023-05-07T00:26:09;11.20;68.60
39519;DHT22;25200;53.394;10.414;2023-05-07T00:28:34;11.20;68.70
39519;DHT22;25200;53.394;10.414;2023-05-07T00:31:00;11.20;68.70
39519;DHT22;25200;53.394;10.414;2023-05-07T00:33:25;11.20;68.70
39519;DHT22;25200;53.394;10.414;2023-05-07T00:35:52;11.20;68.60
39519;DHT22;25200;53.394;10.414;2023-05-07T00:38:19;11.20;69.00
39519;DHT22;25200;53.394;10.414;2023-05-07T00:40:45;11.20;68.50
39519;DHT22;25200;53.394;10.414;2023-05-07T00:43:11;11.10;68.60
39519;DHT22;25200;53.394;10.414;2023-05-07T00:45:38;11.10;68.50
39519;DHT22;25200;53.394;10.414;2023-05-07T00:48:04;11.20;68.50
39519;DHT22;25200;53.394;10.414;2023-05-07T00:50:31;11.20;68.60
39519;DHT22;25200;53.394;10.414;2023-05-07T00:52:56;11.20;68.50
39519;DHT22;25200;53.394;10.414;2023-05-07T00:55:23;11.10;68.50
39519;DHT22;25200;53.394;10.414;2023-05-07T00:57:50;11.10;68.50
39519;DHT22;25200;53.394;10.414;2023-05-07T01:00:16;11.10;68.50
39519;DHT22;25200;53.394;10.414;2023-05-07T01:02:43;11.10;68.50
39519;DHT22;25200;53.394;10.414;2023-05-07T01:05:11;11.10;68.40
39519;DHT22;25200;53.394;10.414;2023-05-07T01:07:38;11.10;68.50
39519;DHT22;25200;53.394;10.414;2023-05-07T01:10:05;11.10;68.50
39519;DHT22;25200;53.394;10.414;2023-05-07T01:12:32;11.10;68.70
39519;DHT22;25200;53.394;10.414;2023-05-07T01:14:58;11.10;68.80
39519;DHT22;25200;53.394;10.414;2023-05-07T01:17:24;11.10;68.60
39519;DHT22;25200;53.394;10.414;2023-05-07T01:19:50;11.10;68.50
39519;DHT22;25200;53.394;10.414;2023-05-07T01:22:17;11.10;68.50
39519;DHT22;25200;53.394;10.414;2023-05-07T01:24:46;11.10;68.50
39519;DHT22;25200;53.394;10.414;2023-05-07T01:27:11;11.10;68.50
39519;DHT22;25200;53.394;10.414;2023-05-07T01:29:37;11.10;68.50
39519;DHT22;25200;53.394;10.414;2023-05-07T01:32:03;11.10;68.50
39519;DHT22;25200;53.394;10.414;2023-05-07T01:34:32;11.10;68.70
39519;DHT22;25200;53.394;10.414;2023-05-07T01:37:00;11.10;68.70
39519;DHT22;25200;53.394;10.414;2023-05-07T01:39:27;11.10;68.70
39519;DHT22;25200;53.394;10.414;2023-05-07T01:41:55;11.10;68.70
39519;DHT22;25200;53.394;10.414;2023-05-07T01:44:22;11.10;68.70
39519;DHT22;25200;53.394;10.414;2023-05-07T01:46:48;11.10;68.70
39519;DHT22;25200;53.394;10.414;2023-05-07T01:49:15;11.10;68.70
39519;DHT22;25200;53.394;10.414;2023-05-07T01:51:41;11.10;69.30
39519;DHT22;25200;53.394;10.414;2023-05-07T01:54:07;11.10;68.60
39519;DHT22;25200;53.394;10.414;2023-05-07T01:56:33;11.10;68.90
39519;DHT22;25200;53.394;10.414;2023-05-07T01:58:59;11.10;68.70
39519;DHT22;25200;53.394;10.414;2023-05-07T02:01:28;11.10;68.90
39519;DHT22;25200;53.394;10.414;2023-05-07T02:03:53;11.10;68.70
39519;DHT22;25200;53.394;10.414;2023-05-07T02:06:19;11.10;68.80
39519;DHT22;25200;53.394;10.414;2023-05-07T02:08:46;11.10;69.40
39519;DHT22;25200;53.394;10.414;2023-05-07T02:11:12;11.00;68.90
39519;DHT22;25200;53.394;10.414;2023-05-07T02:13:38;11.00;68.90
39519;DHT22;25200;53.394;10.414;2023-05-07T02:16:04;11.10;68.80
39519;DHT22;25200;53.394;10.414;2023-05-07T02:18:29;11.00;68.90
39519;DHT22;25200;53.394;10.414;2023-05-07T02:20:55;11.10;69.00
39519;DHT22;25200;53.394;10.414;2023-05-07T02:23:21;11.10;69.10
39519;DHT22;25200;53.394;10.414;2023-05-07T02:25:47;11.00;68.90
39519;DHT22;25200;53.394;10.414;2023-05-07T02:28:12;11.00;69.00
39519;DHT22;25200;53.394;10.414;2023-05-07T02:30:38;11.10;69.00
39519;DHT22;25200;53.394;10.414;2023-05-07T02:33:04;11.00;69.00
39519;DHT22;25200;53.394;10.414;2023-05-07T02:35:30;11.00;69.00
39519;DHT22;25200;53.394;10.414;2023-05-07T02:37:56;11.00;69.00
39519;DHT22;25200;53.394;10.414;2023-05-07T02:40:22;11.00;69.20
39519;DHT22;25200;53.394;10.414;2023-05-07T02:42:47;11.00;69.00
39519;DHT22;25200;53.394;10.414;2023-05-07T02:45:13;11.00;69.00
39519;DHT22;25200;53.394;10.414;2023-05-07T02:47:40;11.00;69.00
39519;DHT22;25200;53.394;10.414;2023-05-07T02:50:06;11.00;69.10
39519;DHT22;25200;53.394;10.414;2023-05-07T02:52:32;11.00;69.00
39519;DHT22;25200;53.394;10.414;2023-05-07T02:54:57;11.00;69.00
39519;DHT22;25200;53.394;10.414;2023-05-07T02:57:23;11.00;69.60
39519;DHT22;25200;53.394;10.414;2023-05-07T02:59:48;11.00;68.90
39519;DHT22;25200;53.394;10.414;2023-05-07T03:02:14;11.00;69.00
39519;DHT22;25200;53.394;10.414;2023-05-07T03:04:40;11.00;69.00
39519;DHT22;25200;53.394;10.414;2023-05-07T03:07:05;11.00;69.00
39519;DHT22;25200;53.394;10.414;2023-05-07T03:09:31;11.00;69.20
39519;DHT22;25200;53.394;10.414;2023-05-07T03:11:57;11.00;68.90
39519;DHT22;25200;53.394;10.414;2023-05-07T03:14:22;10.90;69.10
39519;DHT22;25200;53.394;10.414;2023-05-07T03:16:49;11.00;69.00
39519;DHT22;25200;53.394;10.414;2023-05-07T03:19:14;11.00;69.00
39519;DHT22;25200;53.394;10.414;2023-05-07T03:21:40;11.00;69.00
39519;DHT22;25200;53.394;10.414;2023-05-07T03:24:06;10.90;68.90
39519;DHT22;25200;53.394;10.414;2023-05-07T03:26:31;10.90;68.90
39519;DHT22;25200;53.394;10.414;2023-05-07T03:28:57;10.90;68.90
39519;DHT22;25200;53.394;10.414;2023-05-07T03:31:22;10.90;68.90
39519;DHT22;25200;53.394;10.414;2023-05-07T03:33:53;11.00;69.00
39519;DHT22;25200;53.394;10.414;2023-05-07T03:36:19;10.90;68.90
39519;DHT22;25200;53.394;10.414;2023-05-07T03:38:45;10.90;69.00
39519;DHT22;25200;53.394;10.414;2023-05-07T03:41:11;10.90;68.90
39519;DHT22;25200;53.394;10.414;2023-05-07T03:43:37;10.90;68.90
39519;DHT22;25200;53.394;10.414;2023-05-07T03:46:03;11.00;69.00
39519;DHT22;25200;53.394;10.414;2023-05-07T03:48:28;10.90;68.90
39519;DHT22;25200;53.394;10.414;2023-05-07T03:50:54;10.90;68.80
39519;DHT22;25200;53.394;10.414;2023-05-07T03:53:19;11.00;69.10
39519;DHT22;25200;53.394;10.414;2023-05-07T03:55:45;10.90;69.10
39519;DHT22;25200;53.394;10.414;2023-05-07T03:58:11;10.90;69.00
39519;DHT22;25200;53.394;10.414;2023-05-07T04:00:36;10.90;69.00
39519;DHT22;25200;53.394;10.414;2023-05-07T04:03:06;10.90;68.90
39519;DHT22;25200;53.394;10.414;2023-05-07T04:05:31;10.90;69.10
39519;DHT22;25200;53.394;10.414;2023-05-07T04:07:58;10.90;68.80
39519;DHT22;25200;53.394;10.414;2023-05-07T04:10:24;10.90;69.10
39519;DHT22;25200;53.394;10.414;2023-05-07T04:12:50;10.90;69.00
39519;DHT22;25200;53.394;10.414;2023-05-07T04:15:16;10.90;68.90
39519;DHT22;25200;53.394;10.414;2023-05-07T04:17:41;10.90;68.90
39519;DHT22;25200;53.394;10.414;2023-05-07T04:20:09;10.90;69.10
39519;DHT22;25200;53.394;10.414;2023-05-07T04:22:36;10.90;69.00
39519;DHT22;25200;53.394;10.414;2023-05-07T04:25:02;10.90;68.90
39519;DHT22;25200;53.394;10.414;2023-05-07T04:27:28;10.90;69.00
39519;DHT22;25200;53.394;10.414;2023-05-07T04:29:53;10.90;68.90
39519;DHT22;25200;53.394;10.414;2023-05-07T04:32:22;11.00;68.90
39519;DHT22;25200;53.394;10.414;2023-05-07T04:34:47;11.00;69.00
39519;DHT22;25200;53.394;10.414;2023-05-07T04:37:13;10.90;68.90
39519;DHT22;25200;53.394;10.414;2023-05-07T04:39:38;11.00;69.00
39519;DHT22;25200;53.394;10.414;2023-05-07T04:42:04;11.00;68.90
39519;DHT22;25200;53.394;10.414;2023-05-07T04:44:30;11.00;69.00
39519;DHT22;25200;53.394;10.414;2023-05-07T04:46:56;11.00;69.00
39519;DHT22;25200;53.394;10.414;2023-05-07T04:49:22;11.00;69.00
39519;DHT22;25200;53.394;10.414;2023-05-07T04:51:48;11.00;68.90
39519;DHT22;25200;53.394;10.414;2023-05-07T04:54:14;11.00;68.90
39519;DHT22;25200;53.394;10.414;2023-05-07T04:56:39;11.00;69.00
39519;DHT22;25200;53.394;10.414;2023-05-07T04:59:05;11.00;68.90
39519;DHT22;25200;53.394;10.414;2023-05-07T05:01:31;11.10;69.00
39519;DHT22;25200;53.394;10.414;2023-05-07T05:03:57;11.10;69.00
39519;DHT22;25200;53.394;10.414;2023-05-07T05:06:22;11.10;69.00
39519;DHT22;25200;53.394;10.414;2023-05-07T05:08:48;11.10;68.90
39519;DHT22;25200;53.394;10.414;2023-05-07T05:11:14;11.10;68.90
39519;DHT22;25200;53.394;10.414;2023-05-07T05:13:40;11.10;68.80
39519;DHT22;25200;53.394;10.414;2023-05-07T05:16:06;11.10;68.90
39519;DHT22;25200;53.394;10.414;2023-05-07T05:18:32;11.10;68.80
39519;DHT22;25200;53.394;10.414;2023-05-07T05:20:57;11.10;68.90
39519;DHT22;25200;53.394;10.414;2023-05-07T05:23:23;11.20;68.90
39519;DHT22;25200;53.394;10.414;2023-05-07T05:25:48;11.20;68.90
39519;DHT22;25200;53.394;10.414;2023-05-07T05:28:14;11.20;68.90
39519;DHT22;25200;53.394;10.414;2023-05-07T05:30:39;11.20;68.80
39519;DHT22;25200;53.394;10.414;2023-05-07T05:33:05;11.20;69.00
39519;DHT22;25200;53.394;10.414;2023-05-07T05:35:31;11.20;69.00
39519;DHT22;25200;53.394;10.414;2023-05-07T05:37:57;11.20;68.90
39519;DHT22;25200;53.394;10.414;2023-05-07T05:40:22;11.20;68.80
39519;DHT22;25200;53.394;10.414;2023-05-07T05:42:48;11.30;68.80
39519;DHT22;25200;53.394;10.414;2023-05-07T05:45:14;11.30;68.80
39519;DHT22;25200;53.394;10.414;2023-05-07T05:47:41;11.30;68.80
39519;DHT22;25200;53.394;10.414;2023-05-07T05:50:07;11.30;68.80
39519;DHT22;25200;53.394;10.414;2023-05-07T05:52:32;11.30;68.80
39519;DHT22;25200;53.394;10.414;2023-05-07T05:54:58;11.30;68.80
39519;DHT22;25200;53.394;10.414;2023-05-07T05:57:24;11.30;68.80
39519;DHT22;25200;53.394;10.414;2023-05-07T05:59:49;11.30;68.80
39519;DHT22;25200;53.394;10.414;2023-05-07T06:02:15;11.30;68.80
39519;DHT22;25200;53.394;10.414;2023-05-07T06:04:41;11.30;68.80
39519;DHT22;25200;53.394;10.414;2023-05-07T06:07:07;11.30;68.80
39519;DHT22;25200;53.394;10.414;2023-05-07T06:09:33;11.30;68.80
39519;DHT22;25200;53.394;10.414;2023-05-07T06:11:59;11.30;68.80
39519;DHT22;25200;53.394;10.414;2023-05-07T06:14:24;11.30;68.90
39519;DHT22;25200;53.394;10.414;2023-05-07T06:16:50;11.40;68.90
39519;DHT22;25200;53.394;10.414;2023-05-07T06:19:15;11.40;68.90
39519;DHT22;25200;53.394;10.414;2023-05-07T06:21:43;11.40;68.90
39519;DHT22;25200;53.394;10.414;2023-05-07T06:24:09;11.40;68.90
39519;DHT22;25200;53.394;10.414;2023-05-07T06:26:35;11.40;68.80
39519;DHT22;25200;53.394;10.414;2023-05-07T06:29:00;11.40;68.80
39519;DHT22;25200;53.394;10.414;2023-05-07T06:31:29;11.40;68.80
39519;DHT22;25200;53.394;10.414;2023-05-07T06:33:56;11.40;68.80
39519;DHT22;25200;53.394;10.414;2023-05-07T06:36:22;11.50;68.80
39519;DHT22;25200;53.394;10.414;2023-05-07T06:38:47;11.50;68.60
39519;DHT22;25200;53.394;10.414;2023-05-07T06:41:13;11.50;68.90
39519;DHT22;25200;53.394;10.414;2023-05-07T06:43:38;11.50;68.80
39519;DHT22;25200;53.394;10.414;2023-05-07T06:46:04;11.50;69.10
39519;DHT22;25200;53.394;10.414;2023-05-07T06:48:30;11.60;68.70
39519;DHT22;25200;53.394;10.414;2023-05-07T06:50:59;11.60;68.60
39519;DHT22;25200;53.394;10.414;2023-05-07T06:53:25;11.60;68.80
39519;DHT22;25200;53.394;10.414;2023-05-07T06:55:51;11.60;68.60
39519;DHT22;25200;53.394;10.414;2023-05-07T06:58:17;11.70;68.50
39519;DHT22;25200;53.394;10.414;2023-05-07T07:00:43;11.70;68.60
39519;DHT22;25200;53.394;10.414;2023-05-07T07:03:08;11.70;68.50
39519;DHT22;25200;53.394;10.414;2023-05-07T07:05:35;11.70;68.50
39519;DHT22;25200;53.394;10.414;2023-05-07T07:08:01;11.80;68.50
39519;DHT22;25200;53.394;10.414;2023-05-07T07:10:27;11.80;68.50
39519;DHT22;25200;53.394;10.414;2023-05-07T07:12:52;11.80;68.70
39519;DHT22;25200;53.394;10.414;2023-05-07T07:15:19;11.90;68.60
39519;DHT22;25200;53.394;10.414;2023-05-07T07:17:46;11.90;68.40
39519;DHT22;25200;53.394;10.414;2023-05-07T07:20:11;11.90;68.50
39519;DHT22;25200;53.394;10.414;2023-05-07T07:22:37;11.90;68.50
39519;DHT22;25200;53.394;10.414;2023-05-07T07:25:03;11.90;68.40
39519;DHT22;25200;53.394;10.414;2023-05-07T07:27:29;11.90;68.50
39519;DHT22;25200;53.394;10.414;2023-05-07T07:29:54;11.90;68.50
39519;DHT22;25200;53.394;10.414;2023-05-07T07:32:20;11.90;68.40
39519;DHT22;25200;53.394;10.414;2023-05-07T07:34:46;11.90;68.50
39519;DHT22;25200;53.394;10.414;2023-05-07T07:37:11;11.90;68.40
39519;DHT22;25200;53.394;10.414;2023-05-07T07:39:37;12.00;68.40
39519;DHT22;25200;53.394;10.414;2023-05-07T07:42:06;12.00;68.70
39519;DHT22;25200;53.394;10.414;2023-05-07T07:44:32;12.00;68.90
39519;DHT22;25200;53.394;10.414;2023-05-07T07:46:57;12.00;68.60
39519;DHT22;25200;53.394;10.414;2023-05-07T07:49:23;12.10;68.90
39519;DHT22;25200;53.394;10.414;2023-05-07T07:51:48;12.10;68.60
39519;DHT22;25200;53.394;10.414;2023-05-07T07:54:14;12.10;68.60
39519;DHT22;25200;53.394;10.414;2023-05-07T07:56:40;12.20;68.80
39519;DHT22;25200;53.394;10.414;2023-05-07T07:59:05;12.20;68.60
39519;DHT22;25200;53.394;10.414;2023-05-07T08:01:31;12.20;68.90
39519;DHT22;25200;53.394;10.414;2023-05-07T08:03:57;12.30;68.90
39519;DHT22;25200;53.394;10.414;2023-05-07T08:06:28;12.30;68.80
39519;DHT22;25200;53.394;10.414;2023-05-07T08:08:54;12.30;68.80
39519;DHT22;25200;53.394;10.414;2023-05-07T08:11:19;12.40;68.80
39519;DHT22;25200;53.394;10.414;2023-05-07T08:13:46;12.50;68.80
39519;DHT22;25200;53.394;10.414;2023-05-07T08:16:12;12.60;68.90
39519;DHT22;25200;53.394;10.414;2023-05-07T08:18:38;12.70;69.00
39519;DHT22;25200;53.394;10.414;2023-05-07T08:21:03;12.70;68.80
39519;DHT22;25200;53.394;10.414;2023-05-07T08:23:29;12.80;68.60
39519;DHT22;25200;53.394;10.414;2023-05-07T08:25:55;12.80;68.80
39519;DHT22;25200;53.394;10.414;2023-05-07T08:28:21;12.80;68.70
39519;DHT22;25200;53.394;10.414;2023-05-07T08:30:47;12.90;68.70
39519;DHT22;25200;53.394;10.414;2023-05-07T08:33:13;12.90;68.70
39519;DHT22;25200;53.394;10.414;2023-05-07T08:35:38;13.00;68.80
39519;DHT22;25200;53.394;10.414;2023-05-07T08:38:04;13.00;68.70
39519;DHT22;25200;53.394;10.414;2023-05-07T08:40:37;13.10;69.20
39519;DHT22;25200;53.394;10.414;2023-05-07T08:43:05;13.20;68.60
39519;DHT22;25200;53.394;10.414;2023-05-07T08:45:33;13.20;68.90
39519;DHT22;25200;53.394;10.414;2023-05-07T08:48:01;13.30;68.40
39519;DHT22;25200;53.394;10.414;2023-05-07T08:50:27;13.30;68.40
39519;DHT22;25200;53.394;10.414;2023-05-07T08:52:53;13.30;68.40
39519;DHT22;25200;53.394;10.414;2023-05-07T08:55:20;13.40;68.40
39519;DHT22;25200;53.394;10.414;2023-05-07T08:57:45;13.40;68.40
39519;DHT22;25200;53.394;10.414;2023-05-07T09:00:12;13.40;68.30
39519;DHT22;25200;53.394;10.414;2023-05-07T09:02:38;13.40;68.30
39519;DHT22;25200;53.394;10.414;2023-05-07T09:05:04;13.50;68.30
39519;DHT22;25200;53.394;10.414;2023-05-07T09:07:31;13.50;68.30
39519;DHT22;25200;53.394;10.414;2023-05-07T09:09:56;13.50;68.30
39519;DHT22;25200;53.394;10.414;2023-05-07T09:12:23;13.40;68.20
39519;DHT22;25200;53.394;10.414;2023-05-07T09:14:49;13.40;68.30
39519;DHT22;25200;53.394;10.414;2023-05-07T09:17:16;13.40;68.30
39519;DHT22;25200;53.394;10.414;2023-05-07T09:19:44;13.50;68.50
39519;DHT22;25200;53.394;10.414;2023-05-07T09:22:10;13.60;68.50
39519;DHT22;25200;53.394;10.414;2023-05-07T09:24:37;13.60;68.50
39519;DHT22;25200;53.394;10.414;2023-05-07T09:27:07;13.70;68.40
39519;DHT22;25200;53.394;10.414;2023-05-07T09:29:34;13.70;68.40
39519;DHT22;25200;53.394;10.414;2023-05-07T09:32:07;13.80;68.40
39519;DHT22;25200;53.394;10.414;2023-05-07T09:34:33;13.80;68.30
39519;DHT22;25200;53.394;10.414;2023-05-07T09:37:03;13.90;68.40
39519;DHT22;25200;53.394;10.414;2023-05-07T09:42:08;14.00;68.20
39519;DHT22;25200;53.394;10.414;2023-05-07T09:44:35;14.00;68.20
39519;DHT22;25200;53.394;10.414;2023-05-07T09:47:02;14.00;68.10
39519;DHT22;25200;53.394;10.414;2023-05-07T09:49:30;14.10;68.30
39519;DHT22;25200;53.394;10.414;2023-05-07T09:52:00;14.10;68.30
39519;DHT22;25200;53.394;10.414;2023-05-07T09:54:26;14.20;68.40
39519;DHT22;25200;53.394;10.414;2023-05-07T09:56:55;14.20;68.30
39519;DHT22;25200;53.394;10.414;2023-05-07T09:59:21;14.30;68.20
39519;DHT22;25200;53.394;10.414;2023-05-07T10:01:48;14.40;68.20
39519;DHT22;25200;53.394;10.414;2023-05-07T10:04:14;14.50;68.20
39519;DHT22;25200;53.394;10.414;2023-05-07T10:06:40;14.50;68.10
39519;DHT22;25200;53.394;10.414;2023-05-07T10:09:07;14.60;68.10
39519;DHT22;25200;53.394;10.414;2023-05-07T10:11:34;14.70;68.20
39519;DHT22;25200;53.394;10.414;2023-05-07T10:14:01;14.80;68.20
39519;DHT22;25200;53.394;10.414;2023-05-07T10:16:30;14.90;68.00
39519;DHT22;25200;53.394;10.414;2023-05-07T10:18:58;15.00;68.00
39519;DHT22;25200;53.394;10.414;2023-05-07T10:21:27;15.10;68.00
39519;DHT22;25200;53.394;10.414;2023-05-07T10:24:08;15.10;67.80
39519;DHT22;25200;53.394;10.414;2023-05-07T10:26:45;15.20;67.70
39519;DHT22;25200;53.394;10.414;2023-05-07T10:35:06;15.50;67.60
39519;DHT22;25200;53.394;10.414;2023-05-07T10:37:33;15.60;67.50
39519;DHT22;25200;53.394;10.414;2023-05-07T10:39:59;15.70;67.60
39519;DHT22;25200;53.394;10.414;2023-05-07T10:42:24;15.80;67.50
39519;DHT22;25200;53.394;10.414;2023-05-07T10:44:50;16.00;67.60
39519;DHT22;25200;53.394;10.414;2023-05-07T10:47:17;16.00;67.80
39519;DHT22;25200;53.394;10.414;2023-05-07T10:54:44;16.10;66.70
39519;DHT22;25200;53.394;10.414;2023-05-07T10:57:35;16.20;67.00
39519;DHT22;25200;53.394;10.414;2023-05-07T11:00:02;16.20;67.00
39519;DHT22;25200;53.394;10.414;2023-05-07T11:05:26;16.40;66.60
39519;DHT22;25200;53.394;10.414;2023-05-07T11:07:56;16.40;66.70
39519;DHT22;25200;53.394;10.414;2023-05-07T11:10:22;16.50;66.90
39519;DHT22;25200;53.394;10.414;2023-05-07T11:12:49;16.70;66.10
39519;DHT22;25200;53.394;10.414;2023-05-07T11:15:32;16.80;66.60
39519;DHT22;25200;53.394;10.414;2023-05-07T11:17:59;17.00;66.80
39519;DHT22;25200;53.394;10.414;2023-05-07T11:20:48;17.10;66.30
39519;DHT22;25200;53.394;10.414;2023-05-07T11:26:10;17.40;66.00
39519;DHT22;25200;53.394;10.414;2023-05-07T11:28:38;17.50;62.50
39519;DHT22;25200;53.394;10.414;2023-05-07T11:31:04;17.60;65.60
39519;DHT22;25200;53.394;10.414;2023-05-07T11:33:30;17.70;65.80
39519;DHT22;25200;53.394;10.414;2023-05-07T11:35:57;17.90;65.70
39519;DHT22;25200;53.394;10.414;2023-05-07T11:38:23;18.00;65.60
39519;DHT22;25200;53.394;10.414;2023-05-07T11:40:57;18.30;65.80
39519;DHT22;25200;53.394;10.414;2023-05-07T11:43:26;18.60;65.80
39519;DHT22;25200;53.394;10.414;2023-05-07T11:45:52;18.90;64.40
39519;DHT22;25200;53.394;10.414;2023-05-07T11:48:18;19.10;64.40
39519;DHT22;25200;53.394;10.414;2023-05-07T11:53:20;19.40;64.50
39519;DHT22;25200;53.394;10.414;2023-05-07T11:55:46;19.50;64.80
39519;DHT22;25200;53.394;10.414;2023-05-07T11:58:15;19.60;64.50
39519;DHT22;25200;53.394;10.414;2023-05-07T12:00:53;19.60;62.50
39519;DHT22;25200;53.394;10.414;2023-05-07T12:03:19;19.70;63.10
39519;DHT22;25200;53.394;10.414;2023-05-07T12:05:46;19.80;62.40
39519;DHT22;25200;53.394;10.414;2023-05-07T12:08:15;19.80;63.60
39519;DHT22;25200;53.394;10.414;2023-05-07T12:10:42;19.80;63.70
39519;DHT22;25200;53.394;10.414;2023-05-07T12:13:22;19.80;63.90
39519;DHT22;25200;53.394;10.414;2023-05-07T12:15:55;19.80;63.70
39519;DHT22;25200;53.394;10.414;2023-05-07T12:18:22;19.70;64.10
39519;DHT22;25200;53.394;10.414;2023-05-07T12:20:48;19.80;64.50
39519;DHT22;25200;53.394;10.414;2023-05-07T12:23:14;19.80;64.50
39519;DHT22;25200;53.394;10.414;2023-05-07T12:25:42;19.80;63.90
39519;DHT22;25200;53.394;10.414;2023-05-07T12:28:18;19.80;64.00
39519;DHT22;25200;53.394;10.414;2023-05-07T12:30:46;19.70;63.90
39519;DHT22;25200;53.394;10.414;2023-05-07T12:33:14;19.70;63.90
39519;DHT22;25200;53.394;10.414;2023-05-07T12:35:42;19.70;64.20
39519;DHT22;25200;53.394;10.414;2023-05-07T12:38:15;19.80;64.50
39519;DHT22;25200;53.394;10.414;2023-05-07T12:40:49;19.90;64.90
39519;DHT22;25200;53.394;10.414;2023-05-07T12:43:20;20.00;64.50
39519;DHT22;25200;53.394;10.414;2023-05-07T12:45:47;20.00;64.50
39519;DHT22;25200;53.394;10.414;2023-05-07T12:48:14;20.00;64.30
39519;DHT22;25200;53.394;10.414;2023-05-07T12:50:39;20.00;64.10
39519;DHT22;25200;53.394;10.414;2023-05-07T12:53:06;19.90;64.10
39519;DHT22;25200;53.394;10.414;2023-05-07T12:55:49;19.90;64.00
39519;DHT22;25200;53.394;10.414;2023-05-07T13:00:47;19.90;64.40
39519;DHT22;25200;53.394;10.414;2023-05-07T13:03:30;19.90;64.30
39519;DHT22;25200;53.394;10.414;2023-05-07T13:05:58;20.00;64.80
39519;DHT22;25200;53.394;10.414;2023-05-07T13:08:26;20.00;64.40
39519;DHT22;25200;53.394;10.414;2023-05-07T13:10:52;20.10;63.90
39519;DHT22;25200;53.394;10.414;2023-05-07T13:13:19;20.20;63.70
39519;DHT22;25200;53.394;10.414;2023-05-07T13:15:45;20.30;63.80
39519;DHT22;25200;53.394;10.414;2023-05-07T13:18:11;20.30;63.70
39519;DHT22;25200;53.394;10.414;2023-05-07T13:20:37;20.40;64.20
39519;DHT22;25200;53.394;10.414;2023-05-07T13:23:02;20.40;63.60
39519;DHT22;25200;53.394;10.414;2023-05-07T13:25:30;20.50;63.80
39519;DHT22;25200;53.394;10.414;2023-05-07T13:27:57;20.50;63.50
39519;DHT22;25200;53.394;10.414;2023-05-07T13:30:22;20.60;63.50
39519;DHT22;25200;53.394;10.414;2023-05-07T13:32:48;20.60;63.70
39519;DHT22;25200;53.394;10.414;2023-05-07T13:35:15;20.50;62.20
39519;DHT22;25200;53.394;10.414;2023-05-07T13:37:40;20.40;62.60
39519;DHT22;25200;53.394;10.414;2023-05-07T13:40:06;20.40;63.10
39519;DHT22;25200;53.394;10.414;2023-05-07T13:42:32;20.30;61.50
39519;DHT22;25200;53.394;10.414;2023-05-07T13:44:57;20.30;61.00
39519;DHT22;25200;53.394;10.414;2023-05-07T13:47:23;20.30;62.10
39519;DHT22;25200;53.394;10.414;2023-05-07T13:49:49;20.30;61.30
39519;DHT22;25200;53.394;10.414;2023-05-07T13:52:16;20.30;62.10
39519;DHT22;25200;53.394;10.414;2023-05-07T13:54:42;20.30;62.80
39519;DHT22;25200;53.394;10.414;2023-05-07T13:57:07;20.40;63.20
39519;DHT22;25200;53.394;10.414;2023-05-07T13:59:33;20.40;62.00
39519;DHT22;25200;53.394;10.414;2023-05-07T14:01:59;20.50;62.60
39519;DHT22;25200;53.394;10.414;2023-05-07T14:04:25;20.60;61.70
39519;DHT22;25200;53.394;10.414;2023-05-07T14:06:51;20.70;62.80
39519;DHT22;25200;53.394;10.414;2023-05-07T14:09:16;20.90;61.30
39519;DHT22;25200;53.394;10.414;2023-05-07T14:11:42;21.00;61.80
39519;DHT22;25200;53.394;10.414;2023-05-07T14:14:08;21.10;61.50
39519;DHT22;25200;53.394;10.414;2023-05-07T14:16:36;21.20;62.50
39519;DHT22;25200;53.394;10.414;2023-05-07T14:19:02;21.40;62.20
39519;DHT22;25200;53.394;10.414;2023-05-07T14:21:28;21.50;61.00
39519;DHT22;25200;53.394;10.414;2023-05-07T14:23:53;21.50;61.60
39519;DHT22;25200;53.394;10.414;2023-05-07T14:26:20;21.80;62.00
39519;DHT22;25200;53.394;10.414;2023-05-07T14:28:46;22.10;62.30
39519;DHT22;25200;53.394;10.414;2023-05-07T14:31:12;22.30;61.50
39519;DHT22;25200;53.394;10.414;2023-05-07T14:33:38;22.40;61.90
39519;DHT22;25200;53.394;10.414;2023-05-07T14:36:03;22.60;61.50
39519;DHT22;25200;53.394;10.414;2023-05-07T14:38:30;22.80;61.40
39519;DHT22;25200;53.394;10.414;2023-05-07T14:40:58;22.90;61.10
39519;DHT22;25200;53.394;10.414;2023-05-07T14:43:23;23.10;60.40
39519;DHT22;25200;53.394;10.414;2023-05-07T14:45:49;23.30;61.50
39519;DHT22;25200;53.394;10.414;2023-05-07T14:48:15;23.30;60.30
39519;DHT22;25200;53.394;10.414;2023-05-07T14:50:46;23.30;59.00
39519;DHT22;25200;53.394;10.414;2023-05-07T14:53:11;23.30;59.40
39519;DHT22;25200;53.394;10.414;2023-05-07T14:55:37;23.30;59.90
39519;DHT22;25200;53.394;10.414;2023-05-07T14:58:03;23.20;59.20
39519;DHT22;25200;53.394;10.414;2023-05-07T15:00:28;23.00;59.10
39519;DHT22;25200;53.394;10.414;2023-05-07T15:02:56;22.60;57.50
39519;DHT22;25200;53.394;10.414;2023-05-07T15:05:28;22.30;58.80
39519;DHT22;25200;53.394;10.414;2023-05-07T15:07:54;22.00;58.10
39519;DHT22;25200;53.394;10.414;2023-05-07T15:10:19;21.60;58.60
39519;DHT22;25200;53.394;10.414;2023-05-07T15:12:45;21.40;58.80
39519;DHT22;25200;53.394;10.414;2023-05-07T15:15:10;21.20;58.70
39519;DHT22;25200;53.394;10.414;2023-05-07T15:17:36;21.00;58.50
39519;DHT22;25200;53.394;10.414;2023-05-07T15:20:02;20.80;58.30
39519;DHT22;25200;53.394;10.414;2023-05-07T15:22:30;20.60;58.90
39519;DHT22;25200;53.394;10.414;2023-05-07T15:24:55;20.50;59.30
39519;DHT22;25200;53.394;10.414;2023-05-07T15:27:22;20.40;59.60
39519;DHT22;25200;53.394;10.414;2023-05-07T15:29:48;20.40;60.10
39519;DHT22;25200;53.394;10.414;2023-05-07T15:32:13;20.40;60.20
39519;DHT22;25200;53.394;10.414;2023-05-07T15:34:39;20.30;60.10
39519;DHT22;25200;53.394;10.414;2023-05-07T15:37:04;20.30;59.40